Clermont, Canada
Current Conditions -  °F | °C
As of 2:00 AM on Thursday 23 Oct 2014 (Local Time) from CYBG Reporting Station
Clear Clear  
Wind Chill: 30°   Ceiling: Unl
Heat Index: 34°   Visibility: 25mi
Dew Point: 25°   Wind: 5mph
Humidity: 70%   Direction: 120°ESE
Pressure: 30.36"   Gusts: NA
Location:  47.68°N, 70.23°W
Report Text: CYBG 230600Z 12004KT 25SM SKC 01/M04 A3036 RMK SLP289
Loading
Personal Weather Stations






























Interactive Weather Map
Tropical Storm Tracking
New forecast layout! Learn more

10-Day Weather Forecast

Advertisements
Track Severe Weather on mobile